This is the latest recevied weather packets stored in our database for station/object KE4LOJ. If no packets are shown the sender has not sent any weather packets the latest 10 day(s).
| Time | Temp. | Humidity | Pressure | Rain* | Wind** | Luminosity | Snow |
|---|---|---|---|---|---|---|---|
| 1777396127 | 28.33° C | 63% | 1020.3 hPa | 0 mm | - | 884 W/m² | - |
| 1777395823 | 27.78° C | 65% | 1020.2 hPa | 0 mm | - | 983 W/m² | - |
| 1777395518 | 28.33° C | 64% | 1020.2 hPa | 0 mm | - | 190 W/m² | - |
| 1777395215 | 28.89° C | 61% | 1020.1 hPa | 0 mm | - | 574 W/m² | - |
| 1777394913 | 27.78° C | 63% | 1020.2 hPa | 0 mm | - | 981 W/m² | - |
| 1777394608 | 27.78° C | 65% | 1020.2 hPa | 0 mm | - | 195 W/m² | - |
| 1777394305 | 27.78° C | 65% | 1020.3 hPa | 0 mm | - | 563 W/m² | - |
| 1777394001 | 28.33° C | 64% | 1020.4 hPa | 0 mm | - | 561 W/m² | - |
| 1777393701 | 27.78° C | 64% | 1020.5 hPa | 0 mm | - | 298 W/m² | - |
| 1777393396 | 27.78° C | 65% | 1020.6 hPa | 0 mm | - | 804 W/m² | - |
| 1777393093 | 27.22° C | 67% | 1020.6 hPa | 0 mm | - | 872 W/m² | - |
| 1777392789 | 27.78° C | 66% | 1020.8 hPa | 0 mm | - | 252 W/m² | - |
| 1777392485 | 27.78° C | 66% | 1020.8 hPa | 0 mm | - | 832 W/m² | - |
| 1777392181 | 27.22° C | 67% | 1020.9 hPa | 0 mm | - | 868 W/m² | - |
| 1777391876 | 26.67° C | 70% | 1020.9 hPa | 0 mm | - | 922 W/m² | - |
| 1777391571 | 27.22° C | 71% | 1020.9 hPa | 0 mm | - | 213 W/m² | - |
| 1777391267 | 27.22° C | 67% | 1020.8 hPa | 0 mm | - | 351 W/m² | - |
| 1777390964 | 26.67° C | 69% | 1021.1 hPa | 0 mm | - | 455 W/m² | - |
| 1777390660 | 27.22° C | 69% | 1021.1 hPa | 0 mm | - | 662 W/m² | - |
| 1777390357 | 26.67° C | 69% | 1021.2 hPa | 0 mm | - | 289 W/m² | - |
| 1777390052 | 26.11° C | 70% | 1021.2 hPa | 0 mm | - | 894 W/m² | - |
| 1777389750 | 26.11° C | 71% | 1021 hPa | 0 mm | - | 448 W/m² | - |
| 1777389446 | 26.67° C | 70% | 1021.1 hPa | 0 mm | - | 339 W/m² | - |
| 1777389145 | 26.11° C | 75% | 1021.1 hPa | 0 mm | - | 416 W/m² | - |
| 1777388842 | 25.56° C | 78% | 1020.9 hPa | 0 mm | - | 254 W/m² | - |
* Rain latest hour (hover to see other rain measurements)
** Current wind speed in m/s (hover to see current wind gust speed)